createdAt,value
2019-06-26T00:00:18.680Z,92.00
2019-06-26T00:02:47.176Z,92.00
2019-06-26T00:05:15.760Z,91.90
2019-06-26T00:07:44.306Z,92.10
2019-06-26T00:10:13.084Z,92.00
2019-06-26T00:12:41.511Z,92.40
2019-06-26T00:15:10.997Z,91.90
2019-06-26T00:17:39.421Z,91.90
2019-06-26T00:20:08.403Z,91.90
2019-06-26T00:22:36.863Z,91.80
2019-06-26T00:25:09.687Z,91.80
2019-06-26T00:27:38.127Z,91.80
2019-06-26T00:30:11.242Z,91.80
2019-06-26T00:32:39.735Z,92.30
2019-06-26T00:35:08.356Z,92.00
2019-06-26T00:37:36.782Z,92.20
2019-06-26T00:40:08.610Z,92.40
2019-06-26T00:42:37.036Z,92.40
2019-06-26T00:45:09.117Z,92.40
2019-06-26T00:47:37.559Z,92.50
2019-06-26T00:50:08.535Z,92.50
2019-06-26T00:52:37.048Z,92.60
2019-06-26T00:55:07.238Z,92.80
2019-06-26T00:57:35.800Z,92.80
2019-06-26T01:00:09.921Z,92.90
2019-06-26T01:02:38.462Z,93.00
2019-06-26T01:05:11.678Z,93.10
2019-06-26T01:07:40.328Z,93.20
2019-06-26T01:10:10.320Z,93.30
2019-06-26T01:12:38.816Z,93.30
2019-06-26T01:15:08.409Z,93.50
2019-06-26T01:17:36.846Z,93.30
2019-06-26T01:20:09.005Z,93.20
2019-06-26T01:22:37.461Z,93.50
2019-06-26T01:25:06.247Z,93.90
2019-06-26T01:27:34.664Z,94.00
2019-06-26T01:30:04.547Z,94.20
2019-06-26T01:32:32.991Z,94.20
2019-06-26T01:35:01.438Z,94.40
2019-06-26T01:37:29.954Z,94.60
2019-06-26T01:39:58.394Z,94.80
2019-06-26T01:42:26.818Z,95.00
2019-06-26T01:44:55.265Z,95.10
2019-06-26T01:47:23.691Z,95.20
2019-06-26T01:49:52.154Z,95.30
2019-06-26T01:52:20.576Z,95.40
2019-06-26T01:54:49.028Z,95.70
2019-06-26T01:57:17.448Z,95.80
2019-06-26T01:59:45.899Z,96.00
2019-06-26T02:02:14.375Z,96.20
2019-06-26T02:04:42.857Z,96.30
2019-06-26T02:07:11.285Z,96.40
2019-06-26T02:09:39.723Z,96.60
2019-06-26T02:12:08.162Z,96.60
2019-06-26T02:14:36.664Z,96.70
2019-06-26T02:17:05.131Z,96.80
2019-06-26T02:19:33.670Z,96.90
2019-06-26T02:22:02.100Z,97.20
2019-06-26T02:24:30.540Z,97.50
2019-06-26T02:26:58.965Z,97.60
2019-06-26T02:29:27.415Z,97.80
2019-06-26T02:31:55.913Z,97.80
2019-06-26T02:34:24.367Z,97.90
2019-06-26T02:36:52.798Z,98.00
2019-06-26T02:39:21.836Z,98.10
2019-06-26T02:41:50.255Z,98.20
2019-06-26T02:44:18.711Z,98.20
2019-06-26T02:46:47.147Z,98.30
2019-06-26T02:49:15.568Z,98.30
2019-06-26T02:51:44.018Z,98.50
2019-06-26T02:54:12.460Z,98.50
2019-06-26T02:56:40.888Z,98.50
2019-06-26T02:59:09.346Z,98.50
2019-06-26T03:01:37.847Z,98.70
2019-06-26T03:04:06.361Z,98.90
2019-06-26T03:06:34.804Z,99.10
2019-06-26T03:09:03.389Z,99.20
2019-06-26T03:11:31.852Z,99.40
2019-06-26T03:14:00.269Z,99.90
2019-06-26T03:16:28.710Z,99.70
2019-06-26T03:18:57.154Z,99.90
2019-06-26T03:21:25.607Z,99.90
2019-06-26T03:23:54.034Z,99.90
2019-06-26T03:26:22.485Z,99.90
2019-06-26T03:28:50.987Z,99.90
2019-06-26T03:31:19.505Z,99.90
2019-06-26T03:33:47.933Z,99.90
2019-06-26T03:39:45.413Z,99.90
2019-06-26T03:42:13.867Z,99.90
2019-06-26T03:44:42.323Z,99.90
2019-06-26T03:47:10.844Z,99.90
2019-06-26T03:49:39.296Z,99.90
2019-06-26T03:52:07.727Z,99.90
2019-06-26T03:54:36.174Z,99.90
2019-06-26T03:57:04.622Z,99.80
2019-06-26T03:59:33.036Z,99.60
2019-06-26T04:02:01.492Z,99.60
2019-06-26T04:04:29.910Z,99.60
2019-06-26T04:06:58.364Z,99.60
2019-06-26T04:09:26.827Z,99.70
2019-06-26T04:11:55.255Z,99.60
2019-06-26T04:14:23.722Z,99.10
2019-06-26T04:16:52.151Z,98.60
2019-06-26T04:19:20.598Z,98.00
2019-06-26T04:21:49.048Z,97.60
2019-06-26T04:24:17.487Z,97.20
2019-06-26T04:26:45.941Z,96.90
2019-06-26T04:29:14.364Z,96.70
2019-06-26T04:31:42.805Z,96.60
2019-06-26T04:34:11.292Z,96.30
2019-06-26T04:36:39.783Z,96.20
2019-06-26T04:39:08.928Z,96.30
2019-06-26T04:41:37.420Z,96.40
2019-06-26T04:44:05.904Z,96.60
2019-06-26T04:46:34.353Z,96.60
2019-06-26T04:49:02.787Z,96.90
2019-06-26T04:51:31.221Z,97.00
2019-06-26T04:53:59.657Z,96.90
2019-06-26T04:56:28.080Z,96.60
2019-06-26T04:58:56.523Z,96.70
2019-06-26T05:01:25.044Z,96.50
2019-06-26T05:03:53.465Z,96.40
2019-06-26T05:06:21.911Z,96.50
2019-06-26T05:08:50.366Z,96.20
2019-06-26T05:11:18.882Z,96.20
2019-06-26T05:13:47.387Z,96.00
2019-06-26T05:16:20.070Z,95.80
2019-06-26T05:18:46.021Z,95.60
2019-06-26T05:21:14.439Z,95.70
2019-06-26T05:23:42.907Z,95.30
2019-06-26T05:26:11.404Z,95.10
2019-06-26T05:28:39.827Z,94.80
2019-06-26T05:31:08.267Z,94.40
2019-06-26T05:33:36.730Z,94.30
2019-06-26T05:36:05.166Z,93.90
2019-06-26T05:38:33.608Z,93.80
2019-06-26T05:41:02.068Z,93.80
2019-06-26T05:43:30.502Z,93.80
2019-06-26T05:45:59.007Z,93.90
2019-06-26T05:48:27.428Z,93.70
2019-06-26T05:50:55.878Z,94.00
2019-06-26T05:53:24.308Z,93.90
2019-06-26T05:55:52.779Z,93.90
2019-06-26T05:58:21.230Z,93.90
2019-06-26T06:00:49.733Z,93.40
2019-06-26T06:03:18.183Z,93.10
2019-06-26T06:05:46.603Z,93.10
2019-06-26T06:08:15.061Z,92.80
2019-06-26T06:10:43.783Z,92.70
2019-06-26T06:13:12.313Z,92.50
2019-06-26T06:15:40.996Z,92.40
2019-06-26T06:18:09.449Z,92.30
2019-06-26T06:20:39.411Z,92.40
2019-06-26T06:23:08.597Z,92.20
2019-06-26T06:25:37.084Z,92.00
2019-06-26T06:28:05.611Z,92.10
2019-06-26T06:30:34.057Z,92.20
2019-06-26T06:33:02.614Z,92.40
2019-06-26T06:35:31.246Z,92.40
2019-06-26T06:37:59.703Z,92.10
2019-06-26T06:40:28.126Z,92.10
2019-06-26T06:42:56.594Z,92.20
2019-06-26T06:45:25.288Z,92.10
2019-06-26T06:47:54.111Z,91.90
2019-06-26T06:50:22.832Z,91.70
2019-06-26T06:52:51.339Z,91.70
2019-06-26T06:55:20.528Z,91.70
2019-06-26T06:57:48.951Z,91.60
2019-06-26T07:00:17.731Z,91.50
2019-06-26T07:02:46.187Z,91.60
2019-06-26T07:05:14.995Z,91.50
2019-06-26T07:07:43.423Z,91.60
2019-06-26T07:10:12.106Z,91.40
2019-06-26T07:12:40.524Z,91.20
2019-06-26T07:15:09.915Z,91.00
2019-06-26T07:17:38.351Z,91.00
2019-06-26T07:20:07.350Z,90.40
2019-06-26T07:22:35.832Z,90.80
2019-06-26T07:25:04.924Z,90.50
2019-06-26T07:27:33.356Z,90.40
2019-06-26T07:30:01.863Z,89.80
2019-06-26T07:32:30.350Z,89.80
2019-06-26T07:34:58.838Z,88.80
2019-06-26T07:37:27.288Z,88.00
2019-06-26T07:40:00.309Z,88.60
2019-06-26T07:42:25.888Z,87.60
2019-06-26T07:44:54.320Z,87.20
2019-06-26T07:47:28.222Z,87.10
2019-06-26T07:49:52.923Z,86.20
2019-06-26T07:52:21.467Z,86.60
2019-06-26T07:54:49.980Z,86.90
2019-06-26T07:57:18.406Z,85.50
2019-06-26T07:59:46.862Z,85.40
2019-06-26T08:02:15.303Z,84.70
2019-06-26T08:04:43.759Z,84.00
2019-06-26T08:07:12.204Z,83.10
2019-06-26T08:09:40.662Z,83.60
2019-06-26T08:12:09.248Z,82.80
2019-06-26T08:14:37.692Z,82.70
2019-06-26T08:17:06.092Z,82.60
2019-06-26T08:19:34.538Z,81.90
2019-06-26T08:22:02.995Z,80.30
2019-06-26T08:24:31.415Z,79.70
2019-06-26T08:26:59.937Z,78.30
2019-06-26T08:29:28.720Z,78.70
2019-06-26T08:31:57.185Z,77.30
2019-06-26T08:34:25.608Z,76.90
2019-06-26T08:36:54.062Z,77.50
2019-06-26T08:39:22.490Z,77.00
2019-06-26T08:41:50.943Z,77.20
2019-06-26T08:44:19.393Z,76.40
2019-06-26T08:46:47.844Z,74.90
2019-06-26T08:49:25.438Z,73.80
2019-06-26T08:51:46.442Z,75.00
2019-06-26T08:54:14.874Z,73.40
2019-06-26T08:56:43.393Z,73.40
2019-06-26T08:59:11.911Z,73.70
2019-06-26T09:01:40.336Z,74.30
2019-06-26T09:07:13.582Z,73.10
2019-06-26T09:09:42.031Z,70.30
2019-06-26T09:12:10.479Z,69.90
2019-06-26T09:14:38.895Z,71.00
2019-06-26T09:17:07.364Z,71.40
2019-06-26T09:19:35.779Z,71.30
2019-06-26T09:22:04.281Z,70.40
2019-06-26T09:24:32.731Z,71.20
2019-06-26T09:27:01.229Z,72.20
2019-06-26T09:29:29.675Z,71.60
2019-06-26T09:31:58.142Z,71.10
2019-06-26T09:34:26.575Z,71.50
2019-06-26T09:36:55.027Z,71.80
2019-06-26T09:39:24.023Z,71.60
2019-06-26T09:41:52.485Z,71.10
2019-06-26T09:44:20.907Z,70.70
2019-06-26T09:46:49.324Z,69.10
2019-06-26T09:49:17.770Z,69.10
2019-06-26T09:51:46.187Z,67.30
2019-06-26T09:54:14.649Z,67.80
2019-06-26T09:56:43.093Z,68.60
2019-06-26T09:59:11.584Z,68.70
2019-06-26T10:01:40.038Z,68.00
2019-06-26T10:04:08.496Z,67.10
2019-06-26T10:06:36.987Z,67.30
2019-06-26T10:09:07.856Z,67.70
2019-06-26T10:11:36.325Z,66.50
2019-06-26T10:14:05.415Z,66.00
2019-06-26T10:16:33.845Z,66.00
2019-06-26T10:19:10.321Z,64.90
2019-06-26T10:21:34.802Z,65.10
2019-06-26T10:24:03.235Z,65.30
2019-06-26T10:26:32.722Z,64.20
2019-06-26T10:29:01.504Z,65.20
2019-06-26T10:31:30.268Z,65.50
2019-06-26T10:33:59.078Z,65.50
2019-06-26T10:36:27.525Z,65.40
2019-06-26T10:38:55.955Z,65.50
2019-06-26T10:41:24.407Z,65.30
2019-06-26T10:43:52.841Z,65.60
2019-06-26T10:46:21.306Z,65.80
2019-06-26T10:48:49.744Z,64.00
2019-06-26T10:51:18.238Z,64.20
2019-06-26T10:53:46.683Z,62.60
2019-06-26T10:56:15.106Z,61.70
2019-06-26T10:58:43.552Z,61.80
2019-06-26T11:01:11.977Z,61.50
2019-06-26T11:03:40.504Z,62.10
2019-06-26T11:06:08.951Z,62.90
2019-06-26T11:08:37.376Z,62.20
2019-06-26T11:11:05.828Z,62.80
2019-06-26T11:13:34.270Z,62.50
2019-06-26T11:16:02.724Z,62.60
2019-06-26T11:18:31.255Z,63.60
2019-06-26T11:20:59.731Z,62.70
2019-06-26T11:23:28.163Z,62.80
2019-06-26T11:25:56.606Z,61.10
2019-06-26T11:28:25.020Z,61.20
2019-06-26T11:30:53.550Z,61.40
2019-06-26T11:33:22.036Z,61.90
2019-06-26T11:35:50.488Z,62.20
2019-06-26T11:38:18.999Z,59.00
2019-06-26T11:40:47.456Z,61.80
2019-06-26T11:43:15.962Z,63.20
2019-06-26T11:45:44.385Z,61.20
2019-06-26T11:48:12.867Z,62.70
2019-06-26T11:54:10.399Z,64.90
2019-06-26T11:56:38.844Z,63.90
2019-06-26T11:59:07.343Z,65.10
2019-06-26T12:01:35.857Z,65.10
2019-06-26T12:04:04.292Z,65.10
2019-06-26T12:06:32.782Z,65.00
2019-06-26T12:09:01.253Z,65.00
2019-06-26T12:11:29.705Z,65.40
2019-06-26T12:13:58.145Z,65.70
2019-06-26T12:16:26.587Z,64.90
2019-06-26T12:18:55.014Z,66.10
2019-06-26T12:21:24.305Z,65.20
2019-06-26T12:23:52.730Z,64.60
2019-06-26T12:26:21.190Z,64.30
2019-06-26T12:28:50.220Z,62.60
2019-06-26T12:31:18.803Z,62.90
2019-06-26T12:33:47.324Z,62.00
2019-06-26T12:36:15.786Z,62.50
2019-06-26T12:38:44.276Z,61.40
2019-06-26T12:41:12.735Z,62.30
2019-06-26T12:43:41.159Z,63.10
2019-06-26T12:46:09.615Z,61.60
2019-06-26T12:48:38.067Z,62.80
2019-06-26T12:51:06.527Z,64.40
2019-06-26T12:53:35.125Z,64.00
2019-06-26T12:56:03.554Z,64.70
2019-06-26T12:58:31.974Z,65.60
2019-06-26T13:01:00.415Z,65.90
2019-06-26T13:03:28.835Z,66.40
2019-06-26T13:05:57.352Z,66.00
2019-06-26T13:08:25.787Z,64.60
2019-06-26T13:10:54.299Z,64.70
2019-06-26T13:13:22.725Z,64.60
2019-06-26T13:15:51.469Z,63.60
2019-06-26T13:18:20.096Z,63.00
2019-06-26T13:23:53.215Z,63.10
2019-06-26T13:26:21.661Z,64.20
2019-06-26T13:28:50.109Z,63.40
2019-06-26T13:31:18.682Z,63.70
2019-06-26T13:33:47.240Z,64.10
2019-06-26T13:36:15.667Z,63.40
2019-06-26T13:38:44.115Z,63.70
2019-06-26T13:41:12.537Z,63.90
2019-06-26T13:43:40.979Z,62.60
2019-06-26T13:46:09.403Z,64.20
2019-06-26T13:48:37.857Z,63.50
2019-06-26T13:51:09.927Z,63.20
2019-06-26T13:53:37.082Z,63.70
2019-06-26T13:56:05.577Z,63.70
2019-06-26T13:58:34.051Z,64.70
2019-06-26T14:01:02.483Z,64.20
2019-06-26T14:03:30.920Z,63.80
2019-06-26T14:05:59.347Z,64.00
2019-06-26T14:08:27.795Z,63.00
2019-06-26T14:10:56.219Z,64.10
2019-06-26T14:13:24.651Z,64.80
2019-06-26T14:15:53.243Z,64.60
2019-06-26T14:18:21.713Z,63.80
2019-06-26T14:20:50.224Z,64.00
2019-06-26T14:23:18.670Z,64.10
2019-06-26T14:25:47.090Z,64.20
2019-06-26T14:28:15.548Z,64.30
2019-06-26T14:30:43.977Z,63.80
2019-06-26T14:33:12.395Z,63.30
2019-06-26T14:35:40.847Z,63.60
2019-06-26T14:38:09.280Z,64.60
2019-06-26T14:40:37.728Z,65.00
2019-06-26T14:43:06.149Z,65.50
2019-06-26T14:45:34.599Z,66.70
2019-06-26T14:48:03.058Z,67.30
2019-06-26T14:50:31.480Z,68.20
2019-06-26T14:52:59.954Z,67.20
2019-06-26T14:55:28.556Z,67.30
2019-06-26T14:57:57.028Z,67.70
2019-06-26T15:00:25.851Z,67.90
2019-06-26T15:02:54.277Z,68.30
2019-06-26T15:05:22.702Z,68.00
2019-06-26T15:07:51.153Z,67.50
2019-06-26T15:10:19.952Z,67.40
2019-06-26T15:12:48.832Z,67.30
2019-06-26T15:15:17.686Z,66.00
2019-06-26T15:17:46.161Z,65.10
2019-06-26T15:20:16.152Z,64.80
2019-06-26T15:22:44.608Z,64.70
2019-06-26T15:25:13.387Z,65.00
2019-06-26T15:27:41.815Z,65.10
2019-06-26T15:30:11.708Z,65.30
2019-06-26T15:32:40.160Z,65.60
2019-06-26T15:35:09.492Z,65.40
2019-06-26T15:37:37.954Z,65.90
2019-06-26T15:40:07.721Z,65.90
2019-06-26T15:42:36.183Z,65.90
2019-06-26T15:45:06.248Z,66.20
2019-06-26T15:47:34.692Z,67.70
2019-06-26T15:50:11.009Z,67.30
2019-06-26T15:52:39.614Z,66.60
2019-06-26T15:55:08.151Z,66.60
2019-06-26T15:57:36.703Z,66.40
2019-06-26T16:00:06.727Z,66.90
2019-06-26T16:02:36.755Z,66.80
2019-06-26T16:05:06.861Z,67.40
2019-06-26T16:07:35.300Z,67.90
2019-06-26T16:10:06.663Z,68.60
2019-06-26T16:12:35.088Z,69.80
2019-06-26T16:15:04.378Z,70.90
2019-06-26T16:17:37.044Z,71.10
2019-06-26T16:20:07.218Z,70.80
2019-06-26T16:22:35.734Z,71.90
2019-06-26T16:25:05.165Z,72.90
2019-06-26T16:27:33.588Z,73.10
2019-06-26T16:30:02.079Z,73.40
2019-06-26T16:32:30.532Z,73.50
2019-06-26T16:34:59.057Z,73.70
2019-06-26T16:37:27.514Z,74.10
2019-06-26T16:39:55.985Z,73.70
2019-06-26T16:42:24.429Z,73.00
2019-06-26T16:44:53.565Z,73.30
2019-06-26T16:47:22.073Z,73.70
2019-06-26T16:49:50.565Z,74.00
2019-06-26T16:52:19.010Z,74.80
2019-06-26T16:54:48.275Z,75.20
2019-06-26T16:57:16.718Z,75.40
2019-06-26T16:59:45.160Z,75.50
2019-06-26T17:02:13.616Z,74.60
2019-06-26T17:04:42.148Z,75.00
2019-06-26T17:07:10.677Z,75.50
2019-06-26T17:09:39.099Z,75.60
2019-06-26T17:12:07.568Z,76.40
2019-06-26T17:14:35.990Z,76.60
2019-06-26T17:17:04.579Z,76.50
2019-06-26T17:19:33.027Z,76.10
2019-06-26T17:22:01.449Z,76.20
2019-06-26T17:24:29.895Z,76.60
2019-06-26T17:26:59.558Z,76.80
2019-06-26T17:29:28.146Z,77.10
2019-06-26T17:31:56.576Z,77.00
2019-06-26T17:34:27.169Z,76.60
2019-06-26T17:36:55.191Z,76.10
2019-06-26T17:39:23.708Z,76.50
2019-06-26T17:41:52.144Z,76.20
2019-06-26T17:44:20.585Z,76.30
2019-06-26T17:46:49.029Z,76.70
2019-06-26T17:49:17.460Z,76.70
2019-06-26T17:51:45.909Z,75.80
2019-06-26T17:54:14.329Z,76.00
2019-06-26T17:56:42.781Z,76.00
2019-06-26T17:59:11.208Z,76.60
2019-06-26T18:01:39.658Z,76.90
2019-06-26T18:04:08.218Z,77.70
2019-06-26T18:10:07.015Z,77.90
2019-06-26T18:12:35.474Z,78.10
2019-06-26T18:15:06.222Z,78.90
2019-06-26T18:17:34.797Z,78.90
2019-06-26T18:20:04.728Z,79.30
2019-06-26T18:22:33.181Z,79.10
2019-06-26T18:25:01.638Z,78.60
2019-06-26T18:27:30.096Z,78.20
2019-06-26T18:29:58.616Z,78.90
2019-06-26T18:32:27.133Z,78.60
2019-06-26T18:34:55.603Z,77.60
2019-06-26T18:37:24.122Z,77.50
2019-06-26T18:39:52.542Z,78.00
2019-06-26T18:42:20.977Z,78.50
2019-06-26T18:44:49.436Z,78.60
2019-06-26T18:47:17.849Z,78.70
2019-06-26T18:49:46.295Z,79.00
2019-06-26T18:52:15.895Z,79.50
2019-06-26T18:54:44.362Z,80.00
2019-06-26T18:57:12.780Z,79.70
2019-06-26T18:59:42.291Z,79.70
2019-06-26T19:02:10.889Z,79.60
2019-06-26T19:04:39.333Z,80.30
2019-06-26T19:07:07.759Z,80.70
2019-06-26T19:09:36.210Z,81.00
2019-06-26T19:12:04.704Z,81.20
2019-06-26T19:14:33.151Z,81.60
2019-06-26T19:17:01.580Z,82.30
2019-06-26T19:19:30.032Z,82.50
2019-06-26T19:21:58.454Z,82.80
2019-06-26T19:24:26.892Z,83.50
2019-06-26T19:26:55.343Z,84.00
2019-06-26T19:29:23.821Z,84.20
2019-06-26T19:31:52.269Z,84.50
2019-06-26T19:34:20.687Z,84.90
2019-06-26T19:36:50.646Z,85.30
2019-06-26T19:39:20.873Z,85.90
2019-06-26T19:41:49.576Z,86.10
2019-06-26T19:44:18.032Z,86.80
2019-06-26T19:46:46.456Z,87.20
2019-06-26T19:49:14.913Z,87.90
2019-06-26T19:51:43.365Z,88.20
2019-06-26T19:54:25.951Z,88.80
2019-06-26T19:56:41.960Z,89.00
2019-06-26T19:59:10.413Z,89.10
2019-06-26T20:01:38.921Z,89.60
2019-06-26T20:04:07.332Z,90.10
2019-06-26T20:06:35.783Z,89.90
2019-06-26T20:09:06.353Z,90.00
2019-06-26T20:11:34.799Z,90.10
2019-06-26T20:14:03.384Z,90.00
2019-06-26T20:16:31.843Z,89.10
2019-06-26T20:19:00.267Z,89.50
2019-06-26T20:21:29.055Z,89.40
2019-06-26T20:23:57.512Z,89.70
2019-06-26T20:26:25.972Z,90.00
2019-06-26T20:28:54.648Z,90.30
2019-06-26T20:31:23.099Z,90.60
2019-06-26T20:33:51.548Z,91.00
2019-06-26T20:36:20.154Z,91.20
2019-06-26T20:42:17.496Z,91.70
2019-06-26T20:44:45.923Z,92.00
2019-06-26T20:47:14.448Z,92.30
2019-06-26T20:49:52.766Z,92.70
2019-06-26T20:52:13.059Z,93.30
2019-06-26T20:54:41.502Z,93.70
2019-06-26T20:57:09.962Z,94.10
2019-06-26T20:59:38.386Z,94.50
2019-06-26T21:02:07.137Z,94.80
2019-06-26T21:04:35.568Z,94.90
2019-06-26T21:07:03.994Z,94.90
2019-06-26T21:13:01.600Z,95.00
2019-06-26T21:15:30.029Z,94.60
2019-06-26T21:17:58.474Z,94.80
2019-06-26T21:20:26.940Z,94.80
2019-06-26T21:22:55.382Z,95.10
2019-06-26T21:25:23.832Z,95.10
2019-06-26T21:27:52.256Z,95.10
2019-06-26T21:30:21.212Z,95.40
2019-06-26T21:32:49.634Z,95.60
2019-06-26T21:35:18.385Z,95.80
2019-06-26T21:37:46.918Z,96.20
2019-06-26T21:40:15.417Z,96.50
2019-06-26T21:42:43.876Z,96.90
2019-06-26T21:45:12.741Z,97.20
2019-06-26T21:47:41.188Z,97.50
2019-06-26T21:50:09.780Z,97.70
2019-06-26T21:52:38.196Z,98.00
2019-06-26T21:55:06.932Z,98.20
2019-06-26T21:57:35.386Z,98.40
2019-06-26T22:00:06.724Z,98.40
2019-06-26T22:02:35.215Z,97.90
2019-06-26T22:05:05.306Z,98.00
2019-06-26T22:07:33.725Z,98.10
2019-06-26T22:10:02.352Z,97.80
2019-06-26T22:12:30.825Z,98.00
2019-06-26T22:14:59.247Z,98.00
2019-06-26T22:20:56.720Z,98.20
2019-06-26T22:23:25.172Z,98.10
2019-06-26T22:25:53.596Z,97.90
2019-06-26T22:28:22.059Z,97.90
2019-06-26T22:30:50.558Z,98.10
2019-06-26T22:33:19.177Z,98.40
2019-06-26T22:35:47.615Z,98.60
2019-06-26T22:38:16.044Z,98.80
2019-06-26T22:40:44.501Z,98.80
2019-06-26T22:43:12.923Z,99.00
2019-06-26T22:45:41.846Z,98.90
2019-06-26T22:48:10.332Z,98.90
2019-06-26T22:50:38.786Z,98.80
2019-06-26T22:53:07.255Z,99.20
2019-06-26T22:55:35.746Z,99.20
2019-06-26T22:58:04.174Z,99.30
2019-06-26T23:00:32.709Z,99.20
2019-06-26T23:03:01.201Z,99.10
2019-06-26T23:05:29.698Z,99.00
2019-06-26T23:07:58.138Z,99.20
2019-06-26T23:10:26.766Z,99.10
2019-06-26T23:12:55.469Z,99.30
2019-06-26T23:15:23.932Z,99.60
2019-06-26T23:17:52.527Z,99.60
2019-06-26T23:20:21.402Z,99.70
2019-06-26T23:22:50.200Z,99.80
2019-06-26T23:25:18.783Z,99.70
2019-06-26T23:27:47.333Z,99.80
2019-06-26T23:30:19.510Z,99.90
2019-06-26T23:32:48.024Z,99.90
2019-06-26T23:35:16.725Z,99.90
2019-06-26T23:37:45.155Z,99.90
2019-06-26T23:40:13.724Z,99.90
2019-06-26T23:42:42.190Z,99.90
2019-06-26T23:45:11.489Z,99.90
2019-06-26T23:47:40.018Z,99.90
2019-06-26T23:50:08.813Z,99.90
2019-06-26T23:52:37.241Z,99.90
2019-06-26T23:55:06.832Z,99.90
2019-06-26T23:57:35.273Z,99.90
